Terminal Aerodrome Forecast
Issued by NWS

Home | Current Version | Previous Version | Text Only | Print | Product List | Glossary On
Versions: 1 2 3 4 5 6 7 8 9 10 11 12 13
000
FTUS46 KLOX 180500 RRA
TAFWJF
TAF
KWJF 180542Z 1806/1906 25015G20KT P6SM BKN200
     FM180900 23010KT P6SM BKN200
     FM182100 23017G25KT P6SM BKN200
     FM190300 23010KT P6SM BKN200=

USA.gov is the U.S. government's official web portal to all federal, state and local government web resources and services.